Terminal Aerodrome Forecast
Issued by NWS

Current Version | Previous Version | Text Only | Print | Product List | Glossary On
Versions: 1 2 3 4 5 6 7 8 9 10 11 12 13 14 15 16 17 18 19 20 21 22 23 24 25 26 27 28 29 30 31 32 33 34 35 36
000
FTUS43 KGRB 021700
TAFRHI
TAF
KRHI 021733Z 0218/0318 26008KT P6SM SKC
     FM030100 19004KT P6SM BKN150
     FM030700 19008KT P6SM SCT015 BKN050
      TEMPO 0307/0311 3SM -SN SCT015 BKN030
     FM031400 11012G19KT 1/2SM SN OVC004
      TEMPO 0314/0318 1SM -SN OVC005=

USA.gov is the U.S. government's official web portal to all federal, state and local government web resources and services.